Time;durP1;ratioP1;P1;durP2;ratioP2;P2;SDS_P1;SDS_P2;PMS_P1;PMS_P2;Temp;Humidity;BMP_temperature;BMP_pressure;BME280_temperature;BME280_humidity;BME280_pressure;Samples;Min_cycle;Max_cycle;Signal;HPM_P1;HPM_P2
2023/09/21 00:00:45;;;;;;;;;;;18.70;99.90;;;;;;5061625;28;20289;-70
2023/09/21 00:03:12;;;;;;;;;;;18.70;99.90;;;;;;5058499;28;19964;-71
2023/09/21 00:05:39;;;;;;;;;;;18.70;99.90;;;;;;5063257;28;19924;-70
2023/09/21 00:08:06;;;;;;;;;;;18.70;99.90;;;;;;5071239;28;19924;-76
2023/09/21 00:10:32;;;;;;;;;;;18.80;99.90;;;;;;5059242;28;19979;-70
2023/09/21 00:13:02;;;;;;;;;;;18.80;99.90;;;;;;5047393;28;20378;-70
2023/09/21 00:15:29;;;;;;;;;;;18.80;99.90;;;;;;5064234;28;20012;-70
2023/09/21 00:17:54;;;;;;;;;;;18.80;99.90;;;;;;5071888;28;20003;-70
2023/09/21 00:20:30;;;;;;;;;;;18.80;99.90;;;;;;5060350;28;20011;-70
2023/09/21 00:22:56;;;;;;;;;;;18.80;99.90;;;;;;5072831;28;19931;-70
2023/09/21 00:25:27;;;;;;;;;;;18.80;99.90;;;;;;5067333;28;20405;-70
2023/09/21 00:27:53;;;;;;;;;;;18.80;99.90;;;;;;5071788;28;19924;-70
2023/09/21 00:30:18;;;;;;;;;;;18.80;99.90;;;;;;5065991;28;20367;-79
2023/09/21 00:32:44;;;;;;;;;;;18.80;99.90;;;;;;5069174;28;19931;-70
2023/09/21 00:35:10;;;;;;;;;;;18.90;99.90;;;;;;5071554;28;19924;-70
2023/09/21 00:37:37;;;;;;;;;;;18.90;99.90;;;;;;5069262;28;19924;-71
2023/09/21 00:40:15;;;;;;;;;;;18.90;99.90;;;;;;5052384;28;19964;-70
2023/09/21 00:42:41;;;;;;;;;;;18.90;99.90;;;;;;5058528;28;19932;-70
2023/09/21 00:45:08;;;;;;;;;;;18.90;99.90;;;;;;5062791;28;19935;-71
2023/09/21 00:47:39;;;;;;;;;;;18.90;99.90;;;;;;5050998;28;19925;-71
2023/09/21 00:50:11;;;;;;;;;;;18.90;99.90;;;;;;5052215;28;19959;-70
2023/09/21 00:52:43;;;;;;;;;;;18.90;99.90;;;;;;5050947;28;19932;-70
2023/09/21 00:55:11;;;;;;;;;;;18.90;99.90;;;;;;5029645;28;19964;-70
2023/09/21 00:57:36;;;;;;;;;;;19.00;99.90;;;;;;5041713;28;19928;-71
2023/09/21 01:00:10;;;;;;;;;;;19.00;99.90;;;;;;5060299;28;19972;-70
2023/09/21 01:02:37;;;;;;;;;;;19.00;99.90;;;;;;5051699;28;19925;-70
2023/09/21 01:05:14;;;;;;;;;;;19.00;99.90;;;;;;5052203;28;20394;-70
2023/09/21 01:07:42;;;;;;;;;;;18.90;99.90;;;;;;5038697;28;20144;-71
2023/09/21 01:10:11;;;;;;;;;;;18.90;99.90;;;;;;5051938;28;19932;-70
2023/09/21 01:12:37;;;;;;;;;;;18.90;99.90;;;;;;5050229;28;19932;-70
2023/09/21 01:15:08;;;;;;;;;;;19.00;99.90;;;;;;5057990;28;20008;-70
2023/09/21 01:17:34;;;;;;;;;;;18.90;99.90;;;;;;5057545;28;20298;-70
2023/09/21 01:20:03;;;;;;;;;;;18.90;99.90;;;;;;5063894;28;19932;-70
2023/09/21 01:22:29;;;;;;;;;;;18.90;99.90;;;;;;5054620;28;19932;-70
2023/09/21 01:24:55;;;;;;;;;;;18.90;99.90;;;;;;5052134;28;19975;-70
2023/09/21 01:27:20;;;;;;;;;;;18.80;99.90;;;;;;5049829;28;20382;-70
2023/09/21 01:29:52;;;;;;;;;;;18.80;99.90;;;;;;5067665;28;20346;-70
2023/09/21 01:32:20;;;;;;;;;;;18.80;99.90;;;;;;5056046;28;19925;-70
2023/09/21 01:34:46;;;;;;;;;;;18.80;99.90;;;;;;5053727;28;19975;-71
2023/09/21 01:37:14;;;;;;;;;;;18.90;99.90;;;;;;5061048;28;19928;-71
2023/09/21 01:39:40;;;;;;;;;;;18.80;99.90;;;;;;5042693;28;19928;-70
2023/09/21 01:42:08;;;;;;;;;;;18.80;99.90;;;;;;5074162;28;19978;-70
2023/09/21 01:44:33;;;;;;;;;;;18.90;99.90;;;;;;5065019;28;19925;-70
2023/09/21 01:46:59;;;;;;;;;;;18.90;99.90;;;;;;5064428;28;19974;-70
2023/09/21 01:49:24;;;;;;;;;;;18.90;99.90;;;;;;5067949;28;19979;-69
2023/09/21 01:51:51;;;;;;;;;;;18.90;99.90;;;;;;5055796;28;19921;-69
2023/09/21 01:54:17;;;;;;;;;;;18.90;99.90;;;;;;5049327;28;19925;-69
2023/09/21 01:56:43;;;;;;;;;;;18.90;99.90;;;;;;5052143;28;19924;-70
2023/09/21 01:59:09;;;;;;;;;;;18.90;99.90;;;;;;5055335;28;20342;-70
2023/09/21 02:01:34;;;;;;;;;;;18.90;99.90;;;;;;5054742;28;20138;-70
2023/09/21 02:04:00;;;;;;;;;;;18.90;99.90;;;;;;5054782;28;19924;-70
2023/09/21 02:06:25;;;;;;;;;;;18.90;99.90;;;;;;5054965;28;19925;-70
2023/09/21 02:08:51;;;;;;;;;;;18.90;99.90;;;;;;5043348;28;19994;-71
2023/09/21 02:11:17;;;;;;;;;;;18.90;99.90;;;;;;5055205;28;20412;-71
2023/09/21 02:13:42;;;;;;;;;;;18.90;99.90;;;;;;5069503;28;19943;-71
2023/09/21 02:16:09;;;;;;;;;;;18.90;99.90;;;;;;5054836;28;19931;-71
2023/09/21 02:18:35;;;;;;;;;;;18.80;99.90;;;;;;5054350;28;19929;-80
2023/09/21 02:21:00;;;;;;;;;;;18.80;99.90;;;;;;5053738;28;19925;-71
2023/09/21 02:23:26;;;;;;;;;;;18.80;99.90;;;;;;5070422;28;20263;-71
2023/09/21 02:25:52;;;;;;;;;;;18.80;99.90;;;;;;5054066;28;20275;-70
2023/09/21 02:28:17;;;;;;;;;;;18.80;99.90;;;;;;5054648;28;20024;-70
2023/09/21 02:30:47;;;;;;;;;;;18.80;99.90;;;;;;5054005;28;19925;-70
2023/09/21 02:33:15;;;;;;;;;;;18.80;99.90;;;;;;5053436;28;20015;-71
2023/09/21 02:35:41;;;;;;;;;;;18.70;99.90;;;;;;5061905;28;19925;-71
2023/09/21 02:38:11;;;;;;;;;;;18.70;99.90;;;;;;5054319;28;19978;-71
2023/09/21 02:40:38;;;;;;;;;;;18.70;99.90;;;;;;5054275;28;20036;-79
2023/09/21 02:43:04;;;;;;;;;;;18.70;99.90;;;;;;5054602;28;19948;-70
2023/09/21 02:45:29;;;;;;;;;;;18.70;99.90;;;;;;5054413;28;20295;-70
2023/09/21 02:48:00;;;;;;;;;;;18.70;99.90;;;;;;5052658;28;19935;-70
2023/09/21 02:50:27;;;;;;;;;;;18.70;99.90;;;;;;5054253;28;19932;-70
2023/09/21 02:52:55;;;;;;;;;;;18.70;99.90;;;;;;5053742;28;20014;-70
2023/09/21 02:55:22;;;;;;;;;;;18.80;99.90;;;;;;5053376;28;20275;-70
2023/09/21 02:57:54;;;;;;;;;;;18.70;99.90;;;;;;5053336;28;19932;-76
2023/09/21 03:00:26;;;;;;;;;;;18.80;99.90;;;;;;5050538;28;19947;-69
2023/09/21 03:02:53;;;;;;;;;;;18.70;99.90;;;;;;5053892;28;19980;-70
2023/09/21 03:05:19;;;;;;;;;;;18.70;99.90;;;;;;5040093;28;20371;-70
2023/09/21 03:07:45;;;;;;;;;;;18.70;99.90;;;;;;5053382;28;19972;-70
2023/09/21 03:10:11;;;;;;;;;;;18.70;99.90;;;;;;5050595;28;20008;-70
2023/09/21 03:12:37;;;;;;;;;;;18.60;99.90;;;;;;5053574;28;20409;-70
2023/09/21 03:15:06;;;;;;;;;;;18.60;99.90;;;;;;5053681;28;19924;-69
2023/09/21 03:17:33;;;;;;;;;;;18.70;99.90;;;;;;5047684;28;19928;-70
2023/09/21 03:20:00;;;;;;;;;;;18.70;99.90;;;;;;5045403;28;19925;-69
2023/09/21 03:22:26;;;;;;;;;;;18.60;99.90;;;;;;5053402;28;19964;-70
2023/09/21 03:24:54;;;;;;;;;;;18.70;99.90;;;;;;5052504;28;19968;-70
2023/09/21 03:27:23;;;;;;;;;;;18.70;99.90;;;;;;5053798;28;20286;-71
2023/09/21 03:29:49;;;;;;;;;;;18.70;99.90;;;;;;5051717;28;20405;-70
2023/09/21 03:32:15;;;;;;;;;;;18.60;99.90;;;;;;5052514;28;19928;-69
2023/09/21 03:34:40;;;;;;;;;;;18.60;99.90;;;;;;5056838;28;20016;-70
2023/09/21 03:37:06;;;;;;;;;;;18.60;99.90;;;;;;5073581;28;20166;-69
2023/09/21 03:39:32;;;;;;;;;;;18.60;99.90;;;;;;5054405;28;19929;-70
2023/09/21 03:41:58;;;;;;;;;;;18.70;99.90;;;;;;5053301;28;19931;-71
2023/09/21 03:44:24;;;;;;;;;;;18.60;99.90;;;;;;5051899;28;20488;-70
2023/09/21 03:46:49;;;;;;;;;;;18.60;99.90;;;;;;5053338;28;19925;-72
2023/09/21 03:49:15;;;;;;;;;;;18.70;99.90;;;;;;5039325;28;19925;-71
2023/09/21 03:51:41;;;;;;;;;;;18.70;99.90;;;;;;5068454;28;19990;-70
2023/09/21 03:54:06;;;;;;;;;;;18.70;99.90;;;;;;5052405;28;19925;-70
2023/09/21 03:56:36;;;;;;;;;;;18.70;99.90;;;;;;5053087;28;20440;-71
2023/09/21 03:59:01;;;;;;;;;;;18.80;99.90;;;;;;5046008;28;19968;-70
2023/09/21 04:01:29;;;;;;;;;;;18.90;99.90;;;;;;5067120;28;19999;-70
2023/09/21 04:03:55;;;;;;;;;;;18.90;99.90;;;;;;5054855;28;19931;-71
2023/09/21 04:06:21;;;;;;;;;;;19.00;99.90;;;;;;5052879;28;20011;-71
2023/09/21 04:08:46;;;;;;;;;;;18.90;99.90;;;;;;5050255;28;20326;-70
2023/09/21 04:11:12;;;;;;;;;;;19.00;99.90;;;;;;5032378;28;20042;-70
2023/09/21 04:13:38;;;;;;;;;;;19.00;99.90;;;;;;5034717;28;19964;-74
2023/09/21 04:16:05;;;;;;;;;;;19.00;99.90;;;;;;5052288;28;19963;-70
2023/09/21 04:18:31;;;;;;;;;;;19.00;99.90;;;;;;5052642;28;19925;-70
2023/09/21 04:20:57;;;;;;;;;;;19.00;99.90;;;;;;5051353;28;20016;-71
2023/09/21 04:23:24;;;;;;;;;;;19.00;99.90;;;;;;5047591;28;19932;-70
2023/09/21 04:25:50;;;;;;;;;;;19.00;99.90;;;;;;5051814;28;19952;-70
2023/09/21 04:28:15;;;;;;;;;;;19.00;99.90;;;;;;5052084;28;20378;-70
2023/09/21 04:30:41;;;;;;;;;;;19.00;99.90;;;;;;5025878;28;20054;-70
2023/09/21 04:33:07;;;;;;;;;;;18.90;99.90;;;;;;5045897;28;19932;-70
2023/09/21 04:35:32;;;;;;;;;;;19.00;99.90;;;;;;5051365;28;20298;-71
2023/09/21 04:37:58;;;;;;;;;;;19.00;99.90;;;;;;5051765;28;19924;-71
2023/09/21 04:40:26;;;;;;;;;;;19.00;99.90;;;;;;5052052;28;19925;-70
2023/09/21 04:42:51;;;;;;;;;;;18.90;99.90;;;;;;5047892;28;20433;-71
2023/09/21 04:45:18;;;;;;;;;;;18.90;99.90;;;;;;5033710;28;19925;-70
2023/09/21 04:47:45;;;;;;;;;;;18.90;99.90;;;;;;5051854;28;19925;-70
2023/09/21 04:50:11;;;;;;;;;;;18.90;99.90;;;;;;5050470;28;20024;-70
2023/09/21 04:52:37;;;;;;;;;;;18.80;99.90;;;;;;5051085;28;19966;-70
2023/09/21 04:55:04;;;;;;;;;;;18.80;99.90;;;;;;5050840;28;20008;-72
2023/09/21 04:57:30;;;;;;;;;;;18.80;99.90;;;;;;5051677;28;19932;-71
2023/09/21 04:59:57;;;;;;;;;;;18.70;99.90;;;;;;5067158;28;19928;-71
2023/09/21 05:02:22;;;;;;;;;;;18.70;99.90;;;;;;5049969;28;19956;-71
2023/09/21 05:04:50;;;;;;;;;;;18.70;99.90;;;;;;5051788;28;19924;-71
2023/09/21 05:07:17;;;;;;;;;;;18.70;99.90;;;;;;5050890;28;20293;-71
2023/09/21 05:09:45;;;;;;;;;;;18.70;99.90;;;;;;5051928;28;19924;-71
2023/09/21 05:12:12;;;;;;;;;;;18.60;99.90;;;;;;5067347;28;19924;-69
2023/09/21 05:14:37;;;;;;;;;;;18.60;99.90;;;;;;5050748;28;20298;-81
2023/09/21 05:17:05;;;;;;;;;;;18.60;99.90;;;;;;5051029;28;19932;-75
2023/09/21 05:19:33;;;;;;;;;;;18.60;99.90;;;;;;5050869;28;20386;-69
2023/09/21 05:22:00;;;;;;;;;;;18.60;99.90;;;;;;5051707;28;19963;-68
2023/09/21 05:24:26;;;;;;;;;;;18.70;99.90;;;;;;5051309;28;20007;-72
2023/09/21 05:26:52;;;;;;;;;;;18.60;99.90;;;;;;5049735;28;20041;-71
2023/09/21 05:29:19;;;;;;;;;;;18.70;99.90;;;;;;5060660;28;20352;-70
2023/09/21 05:31:45;;;;;;;;;;;18.70;99.90;;;;;;5071810;28;19970;-71
2023/09/21 05:34:10;;;;;;;;;;;18.70;99.90;;;;;;5070528;28;19929;-71
2023/09/21 05:36:36;;;;;;;;;;;18.70;99.90;;;;;;5060570;28;20334;-71
2023/09/21 05:39:04;;;;;;;;;;;18.80;99.90;;;;;;5058602;28;19929;-69
2023/09/21 05:41:31;;;;;;;;;;;18.80;99.90;;;;;;5058273;28;20354;-70
2023/09/21 05:43:56;;;;;;;;;;;18.80;99.90;;;;;;5050416;28;19925;-71
2023/09/21 05:46:22;;;;;;;;;;;18.80;99.90;;;;;;5050294;28;20313;-73
2023/09/21 05:48:48;;;;;;;;;;;18.80;99.90;;;;;;5051231;28;19924;-71
2023/09/21 05:51:14;;;;;;;;;;;18.70;99.90;;;;;;5051250;28;19925;-72
2023/09/21 05:53:39;;;;;;;;;;;18.80;99.90;;;;;;5052302;28;19932;-71
2023/09/21 05:56:05;;;;;;;;;;;18.80;99.90;;;;;;5049450;28;19964;-71
2023/09/21 05:58:31;;;;;;;;;;;18.80;99.90;;;;;;5049099;28;19925;-72
2023/09/21 06:00:59;;;;;;;;;;;18.90;99.90;;;;;;5050096;28;20331;-67
2023/09/21 06:03:26;;;;;;;;;;;18.90;99.90;;;;;;5051734;28;19925;-70
2023/09/21 06:05:52;;;;;;;;;;;19.00;99.90;;;;;;5051111;28;20470;-70
2023/09/21 06:08:19;;;;;;;;;;;19.00;99.90;;;;;;5052838;28;20378;-70
2023/09/21 06:10:45;;;;;;;;;;;19.00;99.90;;;;;;5054101;28;19925;-70
2023/09/21 06:13:11;;;;;;;;;;;19.00;99.90;;;;;;5054744;28;19947;-73
2023/09/21 06:15:45;;;;;;;;;;;19.10;99.90;;;;;;5054989;28;19979;-69
2023/09/21 06:18:10;;;;;;;;;;;19.10;99.90;;;;;;5054100;28;19990;-72
2023/09/21 06:20:36;;;;;;;;;;;19.00;99.90;;;;;;5052947;28;19924;-69
2023/09/21 06:23:02;;;;;;;;;;;19.10;99.90;;;;;;5055062;28;19974;-70
2023/09/21 06:25:28;;;;;;;;;;;19.00;99.90;;;;;;5053359;28;19925;-70
2023/09/21 06:27:53;;;;;;;;;;;19.00;99.90;;;;;;5053986;28;20281;-71
2023/09/21 06:30:22;;;;;;;;;;;19.00;99.90;;;;;;5053607;28;19931;-70
2023/09/21 06:32:48;;;;;;;;;;;19.00;99.90;;;;;;5054194;28;19995;-70
2023/09/21 06:35:14;;;;;;;;;;;19.00;99.90;;;;;;5054074;28;19924;-75
2023/09/21 06:37:39;;;;;;;;;;;19.00;99.90;;;;;;5070024;28;20006;-70
2023/09/21 06:40:06;;;;;;;;;;;19.00;99.90;;;;;;5054195;28;20376;-69
2023/09/21 06:42:32;;;;;;;;;;;18.90;99.90;;;;;;5053564;28;19935;-72
2023/09/21 06:44:57;;;;;;;;;;;18.90;99.90;;;;;;5054197;28;20386;-71
2023/09/21 06:47:26;;;;;;;;;;;18.90;99.90;;;;;;5052790;28;19925;-70
2023/09/21 06:49:53;;;;;;;;;;;18.90;99.90;;;;;;5043550;28;19937;-69
2023/09/21 06:52:21;;;;;;;;;;;18.80;99.90;;;;;;5049966;28;20385;-71
2023/09/21 06:54:48;;;;;;;;;;;18.80;99.90;;;;;;5052981;28;19925;-71
2023/09/21 06:57:15;;;;;;;;;;;18.80;99.90;;;;;;5039808;28;19947;-69
2023/09/21 06:59:42;;;;;;;;;;;18.80;99.90;;;;;;5040573;28;19932;-75
2023/09/21 07:02:07;;;;;;;;;;;18.80;99.90;;;;;;5050454;28;19979;-69
2023/09/21 07:04:36;;;;;;;;;;;18.80;99.90;;;;;;5055517;28;19925;-77
2023/09/21 07:07:04;;;;;;;;;;;18.80;99.90;;;;;;5036280;28;19929;-70
2023/09/21 07:09:34;;;;;;;;;;;18.70;99.90;;;;;;5053687;28;19978;-65
2023/09/21 07:12:00;;;;;;;;;;;18.70;99.90;;;;;;5053671;28;19925;-65
2023/09/21 07:14:26;;;;;;;;;;;18.60;99.90;;;;;;5051655;28;19924;-66
2023/09/21 07:16:54;;;;;;;;;;;18.60;99.90;;;;;;5052077;28;20028;-67
2023/09/21 07:19:20;;;;;;;;;;;18.50;99.90;;;;;;5053683;28;19925;-75
2023/09/21 07:21:46;;;;;;;;;;;18.50;99.90;;;;;;5053280;28;20259;-66
2023/09/21 07:24:11;;;;;;;;;;;18.40;99.90;;;;;;5052660;28;20015;-67
2023/09/21 07:26:37;;;;;;;;;;;18.40;99.90;;;;;;5045016;28;20450;-67
2023/09/21 07:29:05;;;;;;;;;;;18.30;99.90;;;;;;5035097;28;19925;-67
2023/09/21 07:31:33;;;;;;;;;;;18.30;99.90;;;;;;5052570;28;19951;-65
2023/09/21 07:33:59;;;;;;;;;;;18.20;99.90;;;;;;5050160;28;19932;-65
2023/09/21 07:36:24;;;;;;;;;;;18.20;99.90;;;;;;5049265;28;20075;-74
2023/09/21 07:38:55;;;;;;;;;;;18.20;99.90;;;;;;5050749;28;20011;-65
2023/09/21 07:41:20;;;;;;;;;;;18.10;99.90;;;;;;5051469;28;19958;-65
2023/09/21 07:43:48;;;;;;;;;;;18.20;99.90;;;;;;5052532;28;19966;-68
2023/09/21 07:46:14;;;;;;;;;;;18.20;99.90;;;;;;5053118;28;20037;-65
2023/09/21 07:48:40;;;;;;;;;;;18.10;99.90;;;;;;5052996;28;19925;-65
2023/09/21 07:51:07;;;;;;;;;;;18.10;99.90;;;;;;5048184;28;19990;-65
2023/09/21 07:53:33;;;;;;;;;;;18.10;99.90;;;;;;5051715;28;19925;-70
2023/09/21 07:56:01;;;;;;;;;;;18.10;99.90;;;;;;5042404;28;19925;-65
2023/09/21 07:58:28;;;;;;;;;;;18.20;99.90;;;;;;5048403;28;19932;-75
2023/09/21 08:00:55;;;;;;;;;;;18.10;99.90;;;;;;5065202;28;19929;-67
2023/09/21 08:03:25;;;;;;;;;;;18.20;99.90;;;;;;5050835;28;20355;-67
2023/09/21 08:05:51;;;;;;;;;;;18.10;99.90;;;;;;5051303;28;20017;-67
2023/09/21 08:08:17;;;;;;;;;;;18.10;99.90;;;;;;5050625;28;19925;-67
2023/09/21 08:10:43;;;;;;;;;;;18.10;99.90;;;;;;5051692;28;19971;-67
2023/09/21 08:13:08;;;;;;;;;;;18.10;99.90;;;;;;5067272;28;19925;-66
2023/09/21 08:15:35;;;;;;;;;;;18.10;99.90;;;;;;5051251;28;20433;-68
2023/09/21 08:18:00;;;;;;;;;;;18.10;99.90;;;;;;5049185;28;19925;-67
2023/09/21 08:20:26;;;;;;;;;;;18.00;99.90;;;;;;5045601;28;19929;-69
2023/09/21 08:22:52;;;;;;;;;;;18.00;99.90;;;;;;5052550;28;19934;-68
2023/09/21 08:25:17;;;;;;;;;;;18.00;99.90;;;;;;5040994;28;19929;-71
2023/09/21 08:27:43;;;;;;;;;;;18.00;99.90;;;;;;5053814;28;19924;-68
2023/09/21 08:30:09;;;;;;;;;;;18.00;99.90;;;;;;5051344;28;19931;-68
2023/09/21 08:32:35;;;;;;;;;;;17.90;99.90;;;;;;5049675;28;19925;-73
2023/09/21 08:35:01;;;;;;;;;;;17.90;99.90;;;;;;5044218;28;19925;-69
2023/09/21 08:37:26;;;;;;;;;;;17.90;99.90;;;;;;5050288;28;19925;-68
2023/09/21 08:39:52;;;;;;;;;;;17.90;99.90;;;;;;5051007;28;19939;-66
2023/09/21 08:42:18;;;;;;;;;;;17.90;99.90;;;;;;5037822;28;19952;-71
2023/09/21 08:44:43;;;;;;;;;;;17.90;99.90;;;;;;5047807;28;20067;-67
2023/09/21 08:47:16;;;;;;;;;;;17.90;99.90;;;;;;5049217;28;19978;-66
2023/09/21 08:49:45;;;;;;;;;;;17.90;99.90;;;;;;5050861;28;19935;-67
2023/09/21 08:52:12;;;;;;;;;;;17.90;99.90;;;;;;5049931;28;20023;-68
2023/09/21 08:54:40;;;;;;;;;;;17.90;99.90;;;;;;5050450;28;20322;-71
2023/09/21 08:57:07;;;;;;;;;;;17.90;99.90;;;;;;5041138;28;20264;-68
2023/09/21 08:59:35;;;;;;;;;;;17.90;99.90;;;;;;5035818;28;20080;-65
2023/09/21 09:02:01;;;;;;;;;;;17.90;99.90;;;;;;5037187;28;19928;-66
2023/09/21 09:04:28;;;;;;;;;;;17.90;99.90;;;;;;5050419;28;19925;-67
2023/09/21 09:06:54;;;;;;;;;;;17.90;99.90;;;;;;5048931;28;19983;-68
2023/09/21 09:09:20;;;;;;;;;;;17.90;99.90;;;;;;5022658;28;19961;-67
2023/09/21 09:11:46;;;;;;;;;;;17.90;99.90;;;;;;5046371;28;19932;-68
2023/09/21 09:14:16;;;;;;;;;;;17.80;99.90;;;;;;5049603;28;20267;-68
2023/09/21 09:16:42;;;;;;;;;;;17.70;99.90;;;;;;5050009;28;19929;-70
2023/09/21 09:19:09;;;;;;;;;;;17.50;99.90;;;;;;5045561;28;19992;-67
2023/09/21 09:21:35;;;;;;;;;;;17.40;99.90;;;;;;5048054;28;20012;-68
2023/09/21 09:24:02;;;;;;;;;;;17.30;99.90;;;;;;5065294;28;19924;-67
2023/09/21 09:26:28;;;;;;;;;;;17.20;99.90;;;;;;5063711;28;20016;-66
2023/09/21 09:29:07;;;;;;;;;;;17.20;99.90;;;;;;5052239;28;20007;-67
2023/09/21 09:31:34;;;;;;;;;;;17.10;99.90;;;;;;5060362;28;20366;-66
2023/09/21 09:34:00;;;;;;;;;;;17.00;99.90;;;;;;5050022;28;19931;-67
2023/09/21 09:36:27;;;;;;;;;;;17.00;99.90;;;;;;5051717;28;19925;-66
2023/09/21 09:38:52;;;;;;;;;;;16.90;99.90;;;;;;5048624;28;19925;-66
2023/09/21 09:41:18;;;;;;;;;;;16.90;99.90;;;;;;5051753;28;19925;-66
2023/09/21 09:43:50;;;;;;;;;;;16.80;99.90;;;;;;5069964;28;20343;-74
2023/09/21 09:46:17;;;;;;;;;;;16.90;99.90;;;;;;5054377;28;20231;-67
2023/09/21 09:48:43;;;;;;;;;;;16.80;99.90;;;;;;5054528;28;19933;-73
2023/09/21 09:51:11;;;;;;;;;;;16.80;99.90;;;;;;5070387;28;19932;-68
2023/09/21 09:53:38;;;;;;;;;;;16.90;99.90;;;;;;5054971;28;20405;-68
2023/09/21 09:56:10;;;;;;;;;;;16.90;99.90;;;;;;5050831;28;20147;-69
2023/09/21 09:58:40;;;;;;;;;;;16.90;99.90;;;;;;5052150;28;20270;-69
2023/09/21 10:01:08;;;;;;;;;;;16.80;99.90;;;;;;5052634;28;20012;-67
2023/09/21 10:03:35;;;;;;;;;;;16.80;99.90;;;;;;5054013;28;19974;-67
2023/09/21 10:06:01;;;;;;;;;;;17.00;99.90;;;;;;5050480;28;19925;-67
2023/09/21 10:08:53;;;;;;;;;;;16.80;99.90;;;;;;5042844;27;1977116;-68
2023/09/21 10:11:21;;;;;;;;;;;17.00;99.90;;;;;;5116105;27;19969;-68
2023/09/21 10:13:51;;;;;;;;;;;17.20;99.90;;;;;;5112145;27;20403;-75
2023/09/21 10:16:18;;;;;;;;;;;16.90;99.90;;;;;;5093636;27;126039;-68
2023/09/21 10:18:44;;;;;;;;;;;16.70;99.90;;;;;;5107691;27;19957;-67
2023/09/21 10:21:29;;;;;;;;;;;16.60;99.90;;;;;;5116016;28;19955;-75
2023/09/21 10:24:12;;;;;;;;;;;16.50;99.90;;;;;;5141556;27;20463;-67
2023/09/21 10:26:38;;;;;;;;;;;16.50;99.90;;;;;;5134543;27;20014;-67
2023/09/21 10:29:05;;;;;;;;;;;16.40;99.90;;;;;;5142908;27;20014;-67
2023/09/21 10:31:32;;;;;;;;;;;16.30;99.90;;;;;;5113437;28;20645;-74
2023/09/21 10:33:58;;;;;;;;;;;16.40;99.90;;;;;;5128515;27;20018;-67
2023/09/21 10:36:27;;;;;;;;;;;16.30;99.90;;;;;;5142540;27;20018;-67
2023/09/21 10:39:11;;;;;;;;;;;16.30;99.90;;;;;;5132481;27;19924;-74
2023/09/21 10:41:43;;;;;;;;;;;16.40;99.90;;;;;;5109644;28;20484;-73
2023/09/21 10:44:09;;;;;;;;;;;16.30;99.90;;;;;;5127007;27;19924;-71
2023/09/21 10:46:37;;;;;;;;;;;16.40;99.90;;;;;;5120215;28;19924;-68
2023/09/21 10:49:12;;;;;;;;;;;16.30;99.90;;;;;;5111186;28;19931;-68
2023/09/21 10:51:40;;;;;;;;;;;16.40;99.90;;;;;;5119029;27;19923;-69
2023/09/21 10:54:12;;;;;;;;;;;16.40;99.90;;;;;;5129426;27;19923;-69
2023/09/21 10:56:38;;;;;;;;;;;16.30;99.90;;;;;;5129850;27;19968;-73
2023/09/21 10:59:06;;;;;;;;;;;16.30;99.90;;;;;;5130488;27;19947;-69
2023/09/21 11:01:32;;;;;;;;;;;16.30;99.90;;;;;;5128079;27;20300;-69
2023/09/21 11:03:58;;;;;;;;;;;16.40;99.90;;;;;;5127458;27;19927;-69
2023/09/21 11:06:25;;;;;;;;;;;16.40;99.90;;;;;;5128211;27;19923;-69
2023/09/21 11:08:52;;;;;;;;;;;16.40;99.90;;;;;;5132672;27;19945;-69
2023/09/21 11:11:19;;;;;;;;;;;16.40;99.90;;;;;;5099002;28;19974;-69
2023/09/21 11:13:49;;;;;;;;;;;16.50;99.90;;;;;;5110119;27;34441;-69
2023/09/21 11:16:15;;;;;;;;;;;16.60;99.90;;;;;;5132490;27;83675;-75
2023/09/21 11:18:41;;;;;;;;;;;16.70;99.90;;;;;;5129257;27;20011;-69
2023/09/21 11:21:08;;;;;;;;;;;16.70;99.90;;;;;;5114987;27;19924;-70
2023/09/21 11:23:35;;;;;;;;;;;16.70;99.90;;;;;;5119200;27;19935;-74
2023/09/21 11:26:00;;;;;;;;;;;16.70;99.90;;;;;;5124648;27;20377;-72
2023/09/21 11:28:26;;;;;;;;;;;16.70;99.90;;;;;;5106713;28;19935;-69
2023/09/21 11:30:53;;;;;;;;;;;16.60;99.90;;;;;;5110852;28;19928;-69
2023/09/21 11:33:21;;;;;;;;;;;16.60;99.90;;;;;;5111889;28;19968;-72
2023/09/21 11:35:47;;;;;;;;;;;16.60;99.90;;;;;;5111278;28;20015;-69
2023/09/21 11:38:15;;;;;;;;;;;16.60;99.90;;;;;;5117236;27;20341;-70
2023/09/21 11:40:40;;;;;;;;;;;16.60;99.90;;;;;;5097324;28;20289;-68
2023/09/21 11:43:09;;;;;;;;;;;16.70;99.90;;;;;;5115769;27;19923;-71
2023/09/21 11:45:35;;;;;;;;;;;16.70;99.90;;;;;;5106627;28;19931;-69
2023/09/21 11:48:01;;;;;;;;;;;16.70;99.90;;;;;;5101436;28;19924;-73
2023/09/21 11:50:30;;;;;;;;;;;16.70;99.90;;;;;;5113138;28;19966;-68
2023/09/21 11:52:56;;;;;;;;;;;16.70;99.90;;;;;;5115475;27;19931;-67
2023/09/21 11:55:26;;;;;;;;;;;16.70;99.90;;;;;;5096998;28;20392;-66
2023/09/21 11:57:52;;;;;;;;;;;16.80;99.90;;;;;;5096758;28;20381;-68
2023/09/21 12:00:27;;;;;;;;;;;16.80;99.90;;;;;;5125798;27;19923;-67
2023/09/21 12:02:59;;;;;;;;;;;16.90;99.90;;;;;;5080376;28;19928;-66
2023/09/21 12:05:25;;;;;;;;;;;16.90;99.90;;;;;;5094976;28;20178;-67
2023/09/21 12:07:51;;;;;;;;;;;16.90;99.90;;;;;;5092670;28;19984;-67
2023/09/21 12:10:17;;;;;;;;;;;16.90;99.90;;;;;;5092459;28;20018;-67
2023/09/21 12:12:44;;;;;;;;;;;16.90;99.90;;;;;;5076488;28;19934;-63
2023/09/21 12:15:11;;;;;;;;;;;16.90;99.90;;;;;;5091788;28;19931;-77
2023/09/21 12:17:37;;;;;;;;;;;16.80;99.90;;;;;;5086889;28;19931;-62
2023/09/21 12:20:11;;;;;;;;;;;16.90;99.90;;;;;;5091288;28;20305;-63
2023/09/21 12:22:37;;;;;;;;;;;16.80;99.90;;;;;;5094472;28;20011;-66
2023/09/21 12:25:06;;;;;;;;;;;16.80;99.90;;;;;;5092914;28;20365;-66
2023/09/21 12:27:32;;;;;;;3.50;1.48;;;16.80;99.90;;;;;;5090087;28;20418;-74
2023/09/21 12:29:58;;;;;;;3.33;1.55;;;17.10;99.90;;;;;;5058817;28;20105;-69
2023/09/21 12:32:24;;;;;;;2.25;1.50;;;17.00;99.90;;;;;;5086396;28;20037;-69
2023/09/21 12:34:51;;;;;;;2.10;1.30;;;17.00;99.90;;;;;;5093752;28;20071;-65
2023/09/21 12:37:18;;;;;;;3.67;1.45;;;17.00;99.90;;;;;;5084844;28;20075;-67
2023/09/21 12:39:44;;;;;;;3.60;1.63;;;17.00;99.90;;;;;;5091152;28;20056;-67
2023/09/21 12:42:14;;;;;;;2.92;1.63;;;17.00;99.90;;;;;;5077954;28;20097;-75
2023/09/21 12:44:40;;;;;;;2.75;1.73;;;17.10;99.90;;;;;;5093827;28;20095;-76
2023/09/21 12:47:09;;;;;;;5.25;2.30;;;17.00;99.90;;;;;;5100482;28;20044;-74
2023/09/21 12:49:35;;;;;;;3.55;2.25;;;17.00;99.90;;;;;;5096315;28;20056;-71
2023/09/21 12:52:02;;;;;;;2.95;1.67;;;17.00;99.90;;;;;;5079104;28;20394;-73
2023/09/21 12:54:29;;;;;;;2.45;1.42;;;17.10;99.90;;;;;;5090939;28;20348;-70
2023/09/21 12:56:55;;;;;;;6.53;3.13;;;17.10;99.90;;;;;;5074546;28;20059;-70
2023/09/21 12:59:21;;;;;;;3.05;1.80;;;17.10;99.90;;;;;;5096010;28;20105;-72
2023/09/21 13:01:51;;;;;;;2.20;1.30;;;17.10;99.90;;;;;;5086635;28;20455;-71
2023/09/21 13:04:17;;;;;;;2.13;1.55;;;17.20;99.90;;;;;;5071462;28;20390;-71
2023/09/21 13:06:43;;;;;;;2.95;1.83;;;17.20;99.90;;;;;;5084948;28;20044;-74
2023/09/21 13:09:10;;;;;;;2.50;1.30;;;17.30;99.90;;;;;;5106693;27;20062;-73
2023/09/21 13:11:37;;;;;;;3.35;1.73;;;17.40;99.90;;;;;;5113890;27;20130;-76
2023/09/21 13:14:03;;;;;;;3.28;1.58;;;17.60;99.90;;;;;;5103538;27;20070;-72
2023/09/21 13:16:30;;;;;;;1.80;1.27;;;17.60;99.90;;;;;;5078198;28;20067;-77
2023/09/21 13:18:55;;;;;;;2.20;1.30;;;17.70;99.90;;;;;;5116989;27;20054;-74
2023/09/21 13:21:21;;;;;;;1.98;1.45;;;17.70;99.90;;;;;;5099505;28;20047;-74
2023/09/21 13:23:47;;;;;;;1.63;1.20;;;17.70;99.90;;;;;;5087751;27;20402;-78
2023/09/21 13:26:14;;;;;;;3.30;1.60;;;17.60;99.90;;;;;;5046974;28;43265;-70
2023/09/21 13:28:40;;;;;;;3.97;1.38;;;17.60;99.90;;;;;;5109819;28;20036;-74
2023/09/21 13:31:07;;;;;;;1.58;1.20;;;17.50;99.90;;;;;;5098471;27;20047;-70
2023/09/21 13:33:32;;;;;;;1.45;1.17;;;17.50;99.90;;;;;;5077702;28;20112;-74
2023/09/21 13:35:58;;;;;;;2.15;1.38;;;17.40;99.90;;;;;;5094070;28;20065;-74
2023/09/21 13:38:27;;;;;;;3.65;1.25;;;17.30;99.90;;;;;;5079727;28;20047;-72
2023/09/21 13:40:53;;;;;;;2.97;1.33;;;17.30;99.90;;;;;;5126623;27;20396;-65
2023/09/21 13:43:21;;;;;;;1.98;1.30;;;17.20;99.90;;;;;;5122467;27;20031;-62
2023/09/21 13:45:46;;;;;;;2.80;1.10;;;17.30;99.90;;;;;;5098993;28;20522;-64
2023/09/21 13:48:12;;;;;;;2.63;1.48;;;17.20;99.90;;;;;;5115433;27;20039;-63
2023/09/21 13:50:39;;;;;;;5.32;1.33;;;17.20;99.90;;;;;;5086084;28;20451;-64
2023/09/21 13:53:05;;;;;;;2.85;1.25;;;17.20;99.90;;;;;;5120551;27;20054;-63
2023/09/21 13:55:32;;;;;;;1.90;1.10;;;17.20;99.90;;;;;;5118401;27;20047;-74
2023/09/21 13:57:58;;;;;;;2.40;1.33;;;17.20;99.90;;;;;;5097116;28;20101;-73
2023/09/21 14:00:24;;;;;;;2.28;1.20;;;17.10;99.90;;;;;;5107632;27;20047;-75
2023/09/21 14:02:50;;;;;;;1.60;0.98;;;17.10;99.90;;;;;;5092533;27;20403;-73